Time;durP1;ratioP1;P1;durP2;ratioP2;P2;SDS_P1;SDS_P2;PMS_P1;PMS_P2;Temp;Humidity;BMP_temperature;BMP_pressure;BME280_temperature;BME280_humidity;BME280_pressure;Samples;Min_cycle;Max_cycle;Signal;HPM_P1;HPM_P2
2022/03/11 04:49:30;;;;;;;20.97;12.07;;;3.80;65.60;;;;;;5999998;23;21139;31
2022/03/11 04:51:59;;;;;;;21.00;12.35;;;3.80;66.00;;;;;;4943985;29;20315;-81
2022/03/11 04:54:29;;;;;;;21.33;10.82;;;3.80;66.20;;;;;;4936767;29;20086;-80
2022/03/11 04:56:58;;;;;;;17.95;10.45;;;3.70;66.20;;;;;;4936428;29;20502;-82
2022/03/11 04:59:26;;;;;;;17.55;10.38;;;3.60;66.50;;;;;;4941540;29;20472;-79
2022/03/11 05:01:55;;;;;;;17.60;10.38;;;3.50;66.80;;;;;;4939125;29;20048;-79
2022/03/11 05:04:29;;;;;;;17.48;10.52;;;3.50;67.80;;;;;;4944521;29;20468;-82
2022/03/11 05:06:59;;;;;;;19.90;10.85;;;3.50;67.50;;;;;;4928848;29;20493;-80
2022/03/11 05:09:29;;;;;;;20.55;11.05;;;3.40;67.90;;;;;;4933971;29;20044;-81
2022/03/11 05:11:59;;;;;;;19.70;11.48;;;3.30;68.10;;;;;;4947690;29;20421;-80
2022/03/11 05:14:35;;;;;;;18.77;10.65;;;3.30;68.30;;;;;;4922713;29;20052;-76
2022/03/11 05:17:07;;;;;;;19.15;11.48;;;3.20;68.90;;;;;;4948395;29;20102;-82
2022/03/11 05:19:39;;;;;;;19.88;10.75;;;3.20;69.40;;;;;;4940288;29;20044;-81
2022/03/11 05:22:08;;;;;;;17.75;10.95;;;3.10;69.60;;;;;;4938031;29;20127;-81
2022/03/11 05:24:35;;;;;;;17.67;10.23;;;3.10;70.00;;;;;;4941131;29;20039;-81
2022/03/11 05:27:05;;;;;;;18.98;10.73;;;3.00;70.40;;;;;;4936356;29;20476;-81
2022/03/11 05:29:36;;;;;;;27.63;14.45;;;3.00;71.10;;;;;;4936448;29;20052;-75
2022/03/11 05:32:05;;;;;;;27.40;14.82;;;3.00;71.70;;;;;;4932994;29;20556;-78
2022/03/11 05:34:34;;;;;;;30.48;15.07;;;2.90;72.10;;;;;;4943083;29;20126;-77
2022/03/11 05:37:02;;;;;;;30.42;15.55;;;2.90;72.40;;;;;;4942644;29;20050;-79
2022/03/11 05:39:32;;;;;;;27.95;14.25;;;2.90;72.90;;;;;;4945313;29;20138;-81
2022/03/11 05:42:00;;;;;;;22.90;12.20;;;2.90;73.30;;;;;;4946876;29;20054;-76
2022/03/11 05:44:28;;;;;;;19.45;11.20;;;2.90;73.40;;;;;;4947241;29;20091;-79
2022/03/11 05:46:59;;;;;;;20.33;11.60;;;3.00;73.50;;;;;;4946747;29;20457;-78
2022/03/11 05:49:27;;;;;;;17.73;10.55;;;2.90;73.50;;;;;;4947862;29;20083;-79
2022/03/11 05:51:54;;;;;;;18.52;11.23;;;2.90;73.60;;;;;;4948040;29;20437;-78
2022/03/11 05:54:23;;;;;;;20.63;11.10;;;2.80;73.90;;;;;;4947997;29;20111;-79
2022/03/11 05:56:54;;;;;;;19.95;10.65;;;2.80;74.30;;;;;;4949399;29;20116;-79
2022/03/11 05:59:22;;;;;;;17.88;10.38;;;2.80;75.00;;;;;;4949209;29;20420;-79
2022/03/11 06:01:49;;;;;;;20.95;11.25;;;2.70;75.20;;;;;;4949621;29;20056;-77
2022/03/11 06:04:16;;;;;;;21.08;11.50;;;2.70;75.80;;;;;;4949600;29;20151;-76
2022/03/11 06:06:44;;;;;;;21.98;10.98;;;2.70;76.20;;;;;;4933536;29;20512;-79
2022/03/11 06:09:11;;;;;;;21.33;11.80;;;2.60;76.80;;;;;;4950202;29;20058;-79
2022/03/11 06:11:39;;;;;;;19.85;11.70;;;2.70;77.30;;;;;;4947896;29;20115;-78
2022/03/11 06:14:07;;;;;;;20.52;11.02;;;2.70;77.10;;;;;;4948381;29;20055;-77
2022/03/11 06:16:36;;;;;;;19.42;11.27;;;2.70;76.90;;;;;;4948110;29;20116;-80
2022/03/11 06:19:04;;;;;;;19.35;11.48;;;2.60;77.40;;;;;;4945651;29;20044;-80
2022/03/11 06:21:36;;;;;;;21.05;12.15;;;2.60;77.90;;;;;;4949305;29;20087;-75
2022/03/11 06:24:09;;;;;;;18.65;10.85;;;2.60;78.40;;;;;;4949759;29;20051;-78
2022/03/11 06:26:36;;;;;;;20.08;11.15;;;2.60;78.80;;;;;;4949499;29;20237;-76
2022/03/11 06:29:12;;;;;;;20.58;11.90;;;2.60;78.90;;;;;;4949996;29;20138;-76
2022/03/11 06:31:40;;;;;;;21.75;12.18;;;2.60;79.40;;;;;;4947534;29;20052;-78
2022/03/11 06:34:07;;;;;;;21.83;12.30;;;2.60;80.00;;;;;;4949413;29;20054;-79
2022/03/11 06:36:35;;;;;;;22.15;12.18;;;2.60;80.20;;;;;;4949348;29;20043;-78
2022/03/11 06:39:05;;;;;;;22.02;12.20;;;2.50;80.50;;;;;;4948668;29;20047;-77
2022/03/11 06:41:37;;;;;;;22.92;12.85;;;2.40;81.00;;;;;;4944583;29;20134;-77
2022/03/11 06:44:14;;;;;;;23.13;12.27;;;2.40;81.60;;;;;;4946485;29;20058;-76
2022/03/11 06:46:41;;;;;;;22.42;11.63;;;2.30;82.00;;;;;;4946988;29;20079;-75
2022/03/11 06:49:08;;;;;;;20.60;11.52;;;2.30;82.00;;;;;;4945621;29;20131;-76
2022/03/11 06:51:39;;;;;;;21.00;11.82;;;2.30;82.30;;;;;;4962505;29;20083;-77
2022/03/11 06:54:08;;;;;;;22.55;12.13;;;2.30;82.40;;;;;;4966584;29;20063;-79
2022/03/11 06:56:36;;;;;;;21.80;12.82;;;2.30;82.10;;;;;;4964155;29;20054;-75
2022/03/11 06:59:04;;;;;;;19.50;11.35;;;2.30;81.90;;;;;;4962670;29;20126;-77
2022/03/11 07:01:33;;;;;;;22.48;11.57;;;2.30;82.00;;;;;;4964411;29;20472;-79
2022/03/11 07:04:02;;;;;;;20.48;11.88;;;2.30;82.10;;;;;;4965445;29;20129;-76
2022/03/11 07:06:29;;;;;;;20.65;12.23;;;2.30;82.20;;;;;;4964509;29;20058;-76
2022/03/11 07:09:07;;;;;;;21.40;12.38;;;2.30;81.80;;;;;;4964804;29;20047;-80
2022/03/11 07:11:35;;;;;;;23.17;12.43;;;2.40;81.50;;;;;;4966432;29;20497;-79
2022/03/11 07:14:04;;;;;;;21.83;12.45;;;2.40;81.90;;;;;;4966067;29;20138;-78
2022/03/11 07:16:36;;;;;;;20.20;11.45;;;2.40;82.00;;;;;;4963482;29;20055;-76
2022/03/11 07:19:05;;;;;;;19.58;11.60;;;2.40;82.10;;;;;;4967478;29;20621;-77
2022/03/11 07:21:35;;;;;;;20.40;11.80;;;2.40;82.00;;;;;;4969187;29;20075;-78
2022/03/11 07:24:02;;;;;;;21.25;10.70;;;2.50;82.00;;;;;;4966527;29;20108;-77
2022/03/11 07:26:29;;;;;;;19.00;11.27;;;2.50;81.30;;;;;;4966777;29;20107;-77
2022/03/11 07:28:56;;;;;;;19.20;10.93;;;2.60;80.80;;;;;;4966550;29;20106;-77
2022/03/11 07:31:23;;;;;;;20.73;10.70;;;2.70;80.40;;;;;;4967037;29;20091;-77
2022/03/11 07:33:54;;;;;;;18.60;10.63;;;2.80;80.40;;;;;;4964307;29;20055;-78
2022/03/11 07:36:24;;;;;;;18.58;10.90;;;2.80;80.40;;;;;;4964470;29;20135;-79
2022/03/11 07:38:59;;;;;;;17.95;10.82;;;2.90;79.70;;;;;;4962193;29;20089;-78
2022/03/11 07:41:27;;;;;;;19.58;11.30;;;3.00;79.30;;;;;;4964587;29;20051;-77
2022/03/11 07:43:54;;;;;;;19.95;11.68;;;3.10;78.20;;;;;;4964298;29;20078;-78
2022/03/11 07:46:23;;;;;;;20.52;11.38;;;3.20;77.30;;;;;;4961361;29;20458;-78
2022/03/11 07:48:52;;;;;;;20.88;10.75;;;3.30;76.30;;;;;;4963178;29;20134;-79
2022/03/11 07:51:33;;;;;;;19.02;10.88;;;3.30;76.20;;;;;;4961741;29;20569;-81
2022/03/11 07:54:00;;;;;;;20.00;11.80;;;3.30;76.30;;;;;;4961419;28;20122;-78
2022/03/11 07:56:28;;;;;;;20.77;11.60;;;3.40;75.90;;;;;;4965208;29;20119;-78
2022/03/11 08:01:36;;;;;;;20.98;10.73;;;3.50;75.60;;;;;;4966596;29;20047;-77
2022/03/11 08:04:08;;;;;;;21.05;10.88;;;3.50;75.20;;;;;;4965634;29;20477;-78
2022/03/11 08:06:36;;;;;;;17.65;10.02;;;3.60;74.50;;;;;;4963808;29;20143;-79
2022/03/11 08:09:03;;;;;;;17.52;10.10;;;3.70;72.90;;;;;;4967199;29;20460;-80
2022/03/11 08:11:30;;;;;;;17.73;9.57;;;3.80;72.30;;;;;;4967595;29;20066;-76
2022/03/11 08:14:00;;;;;;;22.00;10.13;;;3.80;71.40;;;;;;4963355;29;20054;-79
2022/03/11 08:16:29;;;;;;;17.98;9.98;;;3.90;70.70;;;;;;4963745;29;20047;-77
2022/03/11 08:18:58;;;;;;;17.15;9.75;;;4.00;70.40;;;;;;4951421;29;20067;-78
2022/03/11 08:21:27;;;;;;;15.95;8.93;;;4.10;70.00;;;;;;4942571;29;20130;-81
2022/03/11 08:23:55;;;;;;;18.88;9.60;;;4.20;69.30;;;;;;4941639;29;20043;-78
2022/03/11 08:26:26;;;;;;;16.55;9.15;;;4.30;68.60;;;;;;4940671;29;20139;-79
2022/03/11 08:28:54;;;;;;;20.20;10.15;;;4.40;68.10;;;;;;4940494;29;20107;-79
2022/03/11 08:31:21;;;;;;;15.82;9.18;;;4.40;67.90;;;;;;4941499;29;20062;-80
2022/03/11 08:33:48;;;;;;;16.55;9.63;;;4.50;66.70;;;;;;4940608;29;20056;-78
2022/03/11 08:36:15;;;;;;;18.70;9.27;;;4.50;66.00;;;;;;4941492;29;20051;-79
2022/03/11 08:38:43;;;;;;;16.17;9.35;;;4.60;65.50;;;;;;4941541;29;20055;-77
2022/03/11 08:41:11;;;;;;;14.98;8.60;;;4.60;65.00;;;;;;4940859;29;20058;-80
2022/03/11 08:43:41;;;;;;;12.63;7.93;;;4.70;64.10;;;;;;4940800;29;20147;-79
2022/03/11 08:46:09;;;;;;;16.08;8.43;;;4.80;64.00;;;;;;4940209;29;20115;-80
2022/03/11 08:48:37;;;;;;;13.40;7.93;;;4.80;63.60;;;;;;4949091;29;20039;-79
2022/03/11 08:51:06;;;;;;;14.82;7.97;;;4.90;63.30;;;;;;4959473;29;20055;-80
2022/03/11 08:53:33;;;;;;;14.52;7.95;;;5.00;63.00;;;;;;4959918;29;20488;-82
2022/03/11 08:56:02;;;;;;;13.90;7.88;;;5.10;62.10;;;;;;4958030;29;20493;-80
2022/03/11 08:58:29;;;;;;;14.75;8.23;;;5.20;62.50;;;;;;4957686;29;20456;-81
2022/03/11 09:00:57;;;;;;;15.45;8.25;;;5.20;61.60;;;;;;4958349;29;20047;-81
2022/03/11 09:03:26;;;;;;;14.68;8.38;;;5.30;61.40;;;;;;4957716;29;20051;-79
2022/03/11 09:05:53;;;;;;;12.65;8.02;;;5.40;60.80;;;;;;4956973;28;20051;-81
2022/03/11 09:08:21;;;;;;;12.82;7.93;;;5.40;60.30;;;;;;4958066;29;20053;-80
2022/03/11 09:10:49;;;;;;;13.63;7.45;;;5.50;60.20;;;;;;4958021;29;20078;-79
2022/03/11 09:13:17;;;;;;;12.90;7.30;;;5.50;60.20;;;;;;4958357;29;20126;-80
2022/03/11 09:15:44;;;;;;;11.95;7.40;;;5.60;60.30;;;;;;4958096;29;20090;-79
2022/03/11 09:18:12;;;;;;;14.43;8.00;;;5.70;60.20;;;;;;4956734;29;20078;-80
2022/03/11 09:20:40;;;;;;;12.82;7.43;;;5.80;59.90;;;;;;4955136;29;20049;-78
2022/03/11 09:23:07;;;;;;;12.35;7.25;;;5.80;59.60;;;;;;4958697;29;20081;-79
2022/03/11 09:25:35;;;;;;;12.68;7.60;;;5.90;58.90;;;;;;4956037;29;20492;-78
2022/03/11 09:28:02;;;;;;;13.35;7.18;;;5.90;58.70;;;;;;4955265;29;20519;-77
2022/03/11 09:30:30;;;;;;;13.82;7.03;;;6.00;58.60;;;;;;4955098;29;20054;-79
2022/03/11 09:32:58;;;;;;;14.07;7.40;;;6.00;57.80;;;;;;4961576;29;20568;-77
2022/03/11 09:35:25;;;;;;;12.40;6.82;;;6.00;57.60;;;;;;4963184;29;20134;-79
2022/03/11 09:37:52;;;;;;;14.93;7.30;;;6.10;57.80;;;;;;4957605;29;20485;-81
2022/03/11 09:40:19;;;;;;;11.80;7.25;;;6.20;57.80;;;;;;4964391;29;20148;-77
2022/03/11 09:42:46;;;;;;;13.77;7.55;;;6.20;57.30;;;;;;4959233;29;20111;-76
2022/03/11 09:45:13;;;;;;;13.73;7.05;;;6.30;57.30;;;;;;4958758;29;20058;-84
2022/03/11 09:47:42;;;;;;;13.23;7.38;;;6.40;57.00;;;;;;4958623;29;20142;-80
2022/03/11 09:50:09;;;;;;;13.07;7.30;;;6.50;56.70;;;;;;4945898;29;20086;-84
2022/03/11 09:52:38;;;;;;;13.35;6.60;;;6.60;56.60;;;;;;4952595;29;20078;-81
2022/03/11 09:55:07;;;;;;;14.30;7.03;;;6.60;56.70;;;;;;4965445;29;20085;-80
2022/03/11 09:57:34;;;;;;;13.10;6.95;;;6.80;56.10;;;;;;4965339;29;20054;-81
2022/03/11 10:00:01;;;;;;;14.52;8.15;;;6.90;56.60;;;;;;4966459;29;20138;-78
2022/03/11 10:02:28;;;;;;;11.85;6.75;;;7.00;55.80;;;;;;4955776;29;20126;-79
2022/03/11 10:04:57;;;;;;;13.77;7.50;;;7.00;55.50;;;;;;4954431;29;20051;-77
2022/03/11 10:07:26;;;;;;;13.70;7.45;;;7.10;55.30;;;;;;4937548;29;20143;-80
2022/03/11 10:09:53;;;;;;;12.40;7.03;;;7.20;55.90;;;;;;4954381;29;20047;-80
2022/03/11 10:12:24;;;;;;;11.77;6.50;;;7.30;55.20;;;;;;4949347;29;20062;-81
2022/03/11 10:15:00;;;;;;;10.02;5.93;;;7.40;55.10;;;;;;4934744;29;20052;-80
2022/03/11 10:17:29;;;;;;;12.35;6.63;;;7.50;54.90;;;;;;4944104;28;20048;-77
2022/03/11 10:20:04;;;;;;;13.27;7.38;;;7.60;54.80;;;;;;4941701;29;20122;-80
2022/03/11 10:22:32;;;;;;;12.48;7.45;;;7.70;54.30;;;;;;4942262;29;20179;-80
2022/03/11 10:25:08;;;;;;;13.38;7.43;;;7.70;54.20;;;;;;4945869;29;20051;-78
2022/03/11 10:28:00;;;;;;;12.60;6.95;;;7.80;54.00;;;;;;4943162;29;20047;-80
2022/03/11 10:30:28;;;;;;;13.02;7.22;;;7.90;53.80;;;;;;4942485;29;20047;-79
2022/03/11 10:32:57;;;;;;;13.02;7.03;;;8.00;53.50;;;;;;4944868;29;20061;-75
2022/03/11 10:35:34;;;;;;;14.55;7.47;;;8.00;53.40;;;;;;4954443;29;20054;-78
2022/03/11 10:38:07;;;;;;;12.93;7.13;;;8.10;53.40;;;;;;4948895;29;20198;-75
2022/03/11 10:40:37;;;;;;;10.60;6.72;;;8.20;53.30;;;;;;4946317;29;20047;-78
2022/03/11 10:43:17;;;;;;;12.63;7.97;;;8.30;53.30;;;;;;4938463;29;20054;-78
2022/03/11 10:45:53;;;;;;;11.02;6.68;;;8.30;52.60;;;;;;4941917;29;20052;-77
2022/03/11 10:48:43;;;;;;;13.30;7.55;;;8.40;53.30;;;;;;4942672;29;20514;-76
2022/03/11 10:51:26;;;;;;;11.23;6.80;;;8.50;52.60;;;;;;4947210;29;20067;-80
2022/03/11 10:53:53;;;;;;;12.73;7.40;;;8.60;52.60;;;;;;4946969;29;20137;-78
2022/03/11 10:56:26;;;;;;;12.98;7.22;;;8.60;52.30;;;;;;4943383;29;20073;-81
2022/03/11 10:58:53;;;;;;;12.32;7.40;;;8.70;52.10;;;;;;4946915;29;20048;-84
2022/03/11 11:01:36;;;;;;;26.95;13.82;;;8.80;52.10;;;;;;4946807;29;20130;-78
2022/03/11 11:04:07;;;;;;;17.35;10.00;;;8.90;51.90;;;;;;4939718;29;20052;-79
2022/03/11 11:06:36;;;;;;;13.80;8.18;;;9.00;52.00;;;;;;4937624;29;20059;-78
2022/03/11 11:09:05;;;;;;;12.40;7.78;;;9.10;51.90;;;;;;4936546;29;20606;-77
2022/03/11 11:11:33;;;;;;;12.68;7.75;;;9.10;51.50;;;;;;4937664;29;20131;-79
2022/03/11 11:14:02;;;;;;;12.20;6.88;;;9.20;51.70;;;;;;4936912;29;20097;-75
2022/03/11 11:16:30;;;;;;;13.13;8.10;;;9.30;51.90;;;;;;4936932;29;20436;-78
2022/03/11 11:18:59;;;;;;;12.10;7.50;;;9.50;51.50;;;;;;4936765;29;20052;-81
2022/03/11 11:21:27;;;;;;;10.93;6.82;;;9.50;50.90;;;;;;4937411;29;20047;-74
2022/03/11 11:23:58;;;;;;;13.93;8.13;;;9.60;50.90;;;;;;4936535;29;20139;-79
2022/03/11 11:26:27;;;;;;;15.02;8.10;;;9.60;50.90;;;;;;4936770;29;20498;-77
2022/03/11 11:28:58;;;;;;;13.40;8.27;;;9.80;51.00;;;;;;4935851;29;20549;-79
2022/03/11 11:31:26;;;;;;;13.80;8.52;;;9.80;50.60;;;;;;4936220;29;20118;-79
2022/03/11 11:33:53;;;;;;;13.45;8.27;;;9.90;50.50;;;;;;4936504;29;20503;-78
2022/03/11 11:36:36;;;;;;;15.15;8.85;;;10.00;51.20;;;;;;4936328;29;20175;-79
2022/03/11 11:39:06;;;;;;;14.18;8.43;;;10.00;50.10;;;;;;4936031;29;20043;-79
2022/03/11 11:41:35;;;;;;;15.13;8.88;;;10.10;49.90;;;;;;4936471;29;20043;-78
2022/03/11 11:44:05;;;;;;;12.55;8.23;;;10.10;50.10;;;;;;4936490;29;20134;-78
2022/03/11 11:46:34;;;;;;;14.60;8.48;;;10.20;49.90;;;;;;4936615;29;20444;-74
2022/03/11 11:49:08;;;;;;;14.15;8.35;;;10.30;49.70;;;;;;4936495;29;20048;-73
2022/03/11 11:52:08;;;;;;;15.50;8.45;;;10.30;50.00;;;;;;4936617;29;20055;-79
2022/03/11 11:54:43;;;;;;;12.52;8.13;;;10.50;49.80;;;;;;4936205;29;20058;-80
2022/03/11 11:57:19;;;;;;;13.10;8.20;;;10.60;49.60;;;;;;4935642;29;20059;-81
2022/03/11 11:59:46;;;;;;;16.30;8.40;;;10.70;49.20;;;;;;4919179;29;20047;-79
2022/03/11 12:02:34;;;;;;;14.35;8.40;;;10.80;48.90;;;;;;4936462;29;20068;-77
2022/03/11 12:05:03;;;;;;;13.90;8.35;;;10.90;48.50;;;;;;4936114;29;20083;-79
2022/03/11 12:07:47;;;;;;;13.65;8.07;;;10.90;48.40;;;;;;4935712;29;20075;-77
2022/03/11 12:10:27;;;;;;;14.25;8.40;;;11.00;48.40;;;;;;4936094;29;20137;-77
2022/03/11 12:13:05;;;;;;;13.88;8.30;;;11.20;48.70;;;;;;4935883;29;20150;-79
2022/03/11 12:15:41;;;;;;;13.77;8.73;;;11.40;48.50;;;;;;4935670;29;20048;-78
2022/03/11 12:18:44;;;;;;;13.20;8.32;;;11.50;48.20;;;;;;4935389;29;20094;-76
2022/03/11 12:21:27;;;;;;;13.02;7.90;;;11.70;48.20;;;;;;4935367;29;20052;-75
2022/03/11 12:23:54;;;;;;;16.38;9.55;;;12.00;48.00;;;;;;4935704;29;20052;-79
2022/03/11 12:26:36;;;;;;;15.85;9.38;;;12.10;47.70;;;;;;4935756;29;20147;-76
2022/03/11 12:29:31;;;;;;;14.85;9.25;;;12.40;48.10;;;;;;4938087;29;20115;-79
2022/03/11 12:31:59;;;;;;;12.73;8.38;;;12.60;47.10;;;;;;4935370;29;20135;-77
2022/03/11 12:34:26;;;;;;;13.43;8.35;;;12.80;46.80;;;;;;4935442;29;20535;-76
2022/03/11 12:36:53;;;;;;;13.38;8.52;;;12.90;46.40;;;;;;4935626;29;20139;-76
2022/03/11 12:39:21;;;;;;;12.73;7.88;;;13.10;46.40;;;;;;4935879;29;20473;-78
2022/03/11 12:41:49;;;;;;;14.27;9.05;;;13.30;46.00;;;;;;4945334;29;20076;-77
2022/03/11 12:44:16;;;;;;;11.95;8.20;;;13.50;45.50;;;;;;4955115;29;20090;-78
2022/03/11 12:46:43;;;;;;;13.18;8.40;;;13.70;45.60;;;;;;4942408;29;20052;-77
2022/03/11 12:49:13;;;;;;;13.18;8.77;;;13.80;45.20;;;;;;4939057;29;20048;-75
2022/03/11 12:51:40;;;;;;;14.90;9.70;;;14.00;45.30;;;;;;4938421;29;20063;-80
2022/03/11 12:54:16;;;;;;;15.27;9.10;;;14.20;44.40;;;;;;4947742;29;20134;-80
2022/03/11 12:56:43;;;;;;;15.80;9.38;;;14.30;44.20;;;;;;4946099;29;20138;-80
2022/03/11 12:59:11;;;;;;;15.30;8.85;;;14.50;43.80;;;;;;4944815;29;20052;-80
2022/03/11 13:01:38;;;;;;;15.60;8.93;;;14.70;43.90;;;;;;4945163;29;20126;-78
2022/03/11 13:04:06;;;;;;;13.73;8.90;;;14.80;43.60;;;;;;4950034;29;20079;-79
2022/03/11 13:06:33;;;;;;;15.40;9.77;;;15.00;43.40;;;;;;4939868;29;20040;-78
2022/03/11 13:09:02;;;;;;;14.90;9.05;;;15.20;42.90;;;;;;4946462;29;20058;-78
2022/03/11 13:11:29;;;;;;;15.65;9.23;;;15.30;42.40;;;;;;4944700;29;20044;-76
2022/03/11 13:14:04;;;;;;;13.02;8.85;;;15.40;42.00;;;;;;4943346;29;20051;-75
2022/03/11 13:16:33;;;;;;;15.05;9.43;;;15.60;42.00;;;;;;4953314;29;20095;-78
2022/03/11 13:19:05;;;;;;;14.95;9.18;;;15.80;41.80;;;;;;4955660;29;20070;-76
2022/03/11 13:21:33;;;;;;;13.88;8.80;;;16.00;41.20;;;;;;4948001;29;20477;-74
2022/03/11 13:24:00;;;;;;;13.52;9.00;;;16.10;41.20;;;;;;4953881;29;20047;-75
2022/03/11 13:26:27;;;;;;;14.90;8.65;;;16.20;40.90;;;;;;4953033;29;20067;-74
2022/03/11 13:28:57;;;;;;;11.25;7.82;;;16.40;40.90;;;;;;4958140;29;20584;-77
2022/03/11 13:31:27;;;;;;;15.35;9.30;;;16.50;40.70;;;;;;4945876;29;20130;-79
2022/03/11 13:34:07;;;;;;;14.20;8.77;;;16.70;40.10;;;;;;4951087;29;20138;-79
2022/03/11 13:36:37;;;;;;;14.48;9.05;;;16.80;39.70;;;;;;4942919;29;20044;-79
2022/03/11 13:39:07;;;;;;;13.45;8.68;;;17.00;39.60;;;;;;4942920;29;20556;-78
2022/03/11 13:41:38;;;;;;;14.85;8.98;;;17.30;39.80;;;;;;4953564;29;20047;-80
2022/03/11 13:44:11;;;;;;;14.10;8.77;;;17.60;39.40;;;;;;4938949;29;20056;-81
2022/03/11 13:46:39;;;;;;;14.15;8.52;;;17.90;38.30;;;;;;4949536;29;20051;-81
2022/03/11 13:49:11;;;;;;;12.43;8.65;;;18.00;38.20;;;;;;4943123;29;20052;-77
2022/03/11 13:51:49;;;;;;;12.30;8.32;;;18.20;37.80;;;;;;4945195;29;20059;-79
2022/03/11 13:54:28;;;;;;;11.18;8.20;;;18.50;37.30;;;;;;4944609;29;20055;-76
2022/03/11 13:56:57;;;;;;;12.10;8.23;;;18.60;37.00;;;;;;4942695;29;20568;-78
2022/03/11 13:59:32;;;;;;;16.48;8.85;;;18.80;36.70;;;;;;4942552;29;20051;-80
2022/03/11 14:02:11;;;;;;;12.98;8.25;;;19.10;36.50;;;;;;4942432;29;20050;-79
2022/03/11 14:04:39;;;;;;;13.25;8.43;;;19.50;36.40;;;;;;4944784;29;20047;-80
2022/03/11 14:07:14;;;;;;;14.23;8.50;;;19.70;35.40;;;;;;4936595;29;20526;-80
2022/03/11 14:09:41;;;;;;;12.90;8.80;;;19.90;35.10;;;;;;4937899;29;20099;-77
2022/03/11 14:12:10;;;;;;;13.63;9.23;;;20.20;35.00;;;;;;4948535;29;20061;-79
2022/03/11 14:14:44;;;;;;;14.68;10.20;;;20.60;34.50;;;;;;4953949;29;20500;-80
2022/03/11 14:17:12;;;;;;;;;;;;;;;;;;4954524;29;20047;-79
2022/03/11 14:19:40;;;;;;;12.82;9.23;;;22.40;68.70;;;;;;4951122;29;20014;-76
2022/03/11 14:22:07;;;;;;;12.30;9.07;;;23.10;30.80;;;;;;4943174;29;20053;-79
2022/03/11 14:24:35;;;;;;;12.85;8.82;;;;;;;;;;4947834;29;20138;-81
2022/03/11 14:27:02;;;;;;;11.88;8.43;;;28.50;28.10;;;;;;4934091;29;20135;-78
2022/03/11 14:29:31;;;;;;;10.68;8.27;;;;;;;;;;4946482;29;20061;-79
2022/03/11 14:31:58;;;;;;;11.10;8.07;;;32.10;59.50;;;;;;4966757;29;20077;-74
2022/03/11 14:34:25;;;;;;;10.52;8.15;;;33.60;41.60;;;;;;4941972;29;21238;-77
2022/03/11 14:36:54;;;;;;;12.00;7.72;;;36.30;24.40;;;;;;4942627;29;20047;-75
2022/03/11 14:39:21;;;;;;;11.60;7.90;;;36.40;24.80;;;;;;4963369;29;20126;-77
2022/03/11 14:41:48;;;;;;;10.68;7.82;;;;;;;;;;4959736;29;20051;-76
2022/03/11 14:44:15;;;;;;;9.98;7.85;;;39.40;23.20;;;;;;4960227;29;20142;-74
2022/03/11 14:46:42;;;;;;;11.75;8.07;;;39.30;23.70;;;;;;4962986;29;20090;-74
2022/03/11 14:49:09;;;;;;;11.70;8.38;;;40.00;23.50;;;;;;4951493;29;20089;-78
2022/03/11 14:51:36;;;;;;;9.90;7.97;;;40.60;23.20;;;;;;4949091;29;20142;-76
2022/03/11 14:54:05;;;;;;;9.68;7.70;;;41.00;23.10;;;;;;4943622;29;20149;-78
2022/03/11 14:56:32;;;;;;;12.27;7.38;;;41.20;22.90;;;;;;4942194;29;20052;-81
2022/03/11 14:58:59;;;;;;;10.73;7.65;;;41.70;22.70;;;;;;4941681;29;20051;-78
2022/03/11 15:01:27;;;;;;;9.77;7.30;;;42.20;22.90;;;;;;4937085;29;20047;-78
2022/03/11 15:03:55;;;;;;;11.13;8.00;;;42.80;22.70;;;;;;4943765;28;20058;-76
2022/03/11 15:06:22;;;;;;;10.32;7.05;;;42.20;22.50;;;;;;4941584;29;20055;-78
2022/03/11 15:08:49;;;;;;;10.60;7.88;;;41.50;22.20;;;;;;4941806;29;20058;-77
2022/03/11 15:11:18;;;;;;;9.65;7.20;;;40.70;22.10;;;;;;4941079;29;20109;-75
2022/03/11 15:13:46;;;;;;;9.77;7.60;;;;;;;;;;4939538;29;20055;-77
2022/03/11 15:16:14;;;;;;;10.15;7.53;;;38.90;21.80;;;;;;4950517;29;20062;-77
2022/03/11 15:18:41;;;;;;;9.85;8.13;;;37.50;21.90;;;;;;4944440;29;20070;-78
2022/03/11 15:21:09;;;;;;;10.90;8.30;;;36.10;22.10;;;;;;4944015;29;20043;-77
2022/03/11 15:23:39;;;;;;;11.90;8.15;;;35.20;22.20;;;;;;4938717;29;20047;-79
2022/03/11 15:26:06;;;;;;;11.75;8.90;;;34.50;22.80;;;;;;4944208;29;20054;-79
2022/03/11 15:28:35;;;;;;;12.18;8.68;;;32.70;22.50;;;;;;4949610;29;20071;-79
2022/03/11 15:31:02;;;;;;;13.32;8.02;;;32.30;23.10;;;;;;4938049;29;20062;-77
2022/03/11 15:33:29;;;;;;;11.30;8.43;;;31.40;23.40;;;;;;4940795;29;20048;-78
2022/03/11 15:35:56;;;;;;;13.13;8.70;;;30.70;23.70;;;;;;4943184;29;20114;-80
2022/03/11 15:38:23;;;;;;;11.65;8.63;;;30.30;23.80;;;;;;4944432;29;20051;-80
2022/03/11 15:40:50;;;;;;;11.13;8.70;;;29.90;24.00;;;;;;4934972;29;20047;-75
2022/03/11 15:43:17;;;;;;;12.57;8.63;;;29.20;24.00;;;;;;4936030;29;20054;-80
2022/03/11 15:45:46;;;;;;;12.48;9.07;;;28.40;24.20;;;;;;4935419;29;20139;-77
2022/03/11 15:48:13;;;;;;;13.35;9.00;;;27.80;24.90;;;;;;4950968;29;20065;-78
2022/03/11 15:50:40;;;;;;;12.93;9.32;;;27.40;24.70;;;;;;4963767;29;20043;-76
2022/03/11 15:53:07;;;;;;;13.85;8.57;;;26.90;25.00;;;;;;4956590;28;20069;-75
2022/03/11 15:55:34;;;;;;;12.00;8.40;;;26.20;25.10;;;;;;4951661;29;20089;-76
2022/03/11 15:58:01;;;;;;;13.02;9.13;;;25.60;25.40;;;;;;4946949;29;20126;-80
2022/03/11 16:00:29;;;;;;;12.70;8.35;;;25.00;25.60;;;;;;4943705;29;20047;-78
2022/03/11 16:02:57;;;;;;;12.40;8.48;;;24.40;25.80;;;;;;4943720;29;20056;-81
2022/03/11 16:21:16;;;;;;;6.45;4.00;;;19.70;33.40;;;;;;5126718;27;20923;-79
2022/03/11 16:23:46;;;;;;;5.88;3.47;;;17.70;34.70;;;;;;5106428;28;20428;-78
2022/03/11 16:26:14;;;;;;;6.63;4.00;;;17.10;35.30;;;;;;5107737;28;20135;-81
2022/03/11 16:28:41;;;;;;;8.85;5.18;;;16.70;36.40;;;;;;5107841;28;20067;-79
2022/03/11 16:31:09;;;;;;;8.00;4.45;;;15.80;35.90;;;;;;5105228;28;20051;-84
2022/03/11 16:33:36;;;;;;;9.25;5.50;;;15.90;37.80;;;;;;5105222;28;20046;-79
2022/03/11 16:36:03;;;;;;;12.93;8.20;;;15.50;36.90;;;;;;5108984;28;20122;-85
2022/03/11 16:38:41;;;;;;;11.18;5.22;;;15.30;36.40;;;;;;5111924;28;20073;-91
2022/03/11 16:41:09;;;;;;;9.65;5.47;;;14.80;36.80;;;;;;5110547;28;20044;-88
2022/03/11 16:43:36;;;;;;;8.10;4.05;;;14.70;37.10;;;;;;5113078;28;20044;-86
2022/03/11 16:46:06;;;;;;;8.68;4.95;;;14.80;37.00;;;;;;5112320;28;20127;-90
2022/03/11 16:48:33;;;;;;;8.50;4.70;;;14.60;37.30;;;;;;5115527;28;20134;-77
2022/03/11 16:51:00;;;;;;;8.00;4.68;;;14.20;38.20;;;;;;5125234;28;20134;-80
2022/03/11 16:53:27;;;;;;;6.50;4.00;;;14.30;39.80;;;;;;5130888;27;20047;-83
2022/03/11 16:55:56;;;;;;;6.85;3.90;;;14.30;38.40;;;;;;5130955;27;20078;-84
2022/03/11 16:58:23;;;;;;;7.38;3.92;;;15.80;53.60;;;;;;5126119;27;20122;-83
2022/03/11 17:00:50;;;;;;;9.02;5.80;;;14.50;39.00;;;;;;5109434;28;20058;-81
2022/03/11 17:03:18;;;;;;;7.72;4.10;;;14.00;39.20;;;;;;5109410;28;20052;-90
2022/03/11 17:05:45;;;;;;;10.45;5.18;;;13.70;39.70;;;;;;5110816;28;20044;-87
2022/03/11 17:08:13;;;;;;;8.57;4.93;;;13.50;40.30;;;;;;5110915;28;20138;-89
2022/03/11 17:10:41;;;;;;;6.93;4.30;;;13.40;40.90;;;;;;5111116;28;20044;-89
2022/03/11 17:13:10;;;;;;;7.53;4.00;;;13.20;40.60;;;;;;5110368;28;20052;-87
2022/03/11 17:15:38;;;;;;;7.45;4.43;;;13.20;40.80;;;;;;5110538;28;20059;-88
2022/03/11 17:18:05;;;;;;;12.07;6.18;;;12.90;41.40;;;;;;5110455;28;20485;-88
2022/03/11 17:20:34;;;;;;;13.25;6.68;;;12.60;40.90;;;;;;5109672;28;20134;-85
2022/03/11 17:23:04;;;;;;;8.00;4.50;;;12.40;41.40;;;;;;5110139;28;20077;-87
2022/03/11 17:25:32;;;;;;;10.75;5.40;;;12.40;41.20;;;;;;5110260;28;20055;-89
2022/03/11 17:28:00;;;;;;;8.15;4.82;;;12.50;42.00;;;;;;5110437;28;20048;-89
2022/03/11 17:30:29;;;;;;;6.45;3.85;;;12.40;41.60;;;;;;5109610;28;20049;-87
2022/03/11 17:32:56;;;;;;;6.70;3.58;;;12.40;41.80;;;;;;5096280;28;20058;-88
2022/03/11 17:35:24;;;;;;;10.07;5.40;;;12.40;42.30;;;;;;5096589;28;20040;-88
2022/03/11 17:37:51;;;;;;;6.68;3.63;;;12.20;42.10;;;;;;5096461;28;20048;-88
2022/03/11 17:40:19;;;;;;;6.70;3.88;;;12.20;42.10;;;;;;5096613;28;20127;-90
2022/03/11 17:42:46;;;;;;;7.75;4.20;;;12.20;41.70;;;;;;5096349;28;20206;-89
2022/03/11 17:45:14;;;;;;;7.60;3.95;;;12.00;41.80;;;;;;5097212;28;20074;-86
2022/03/11 17:47:45;;;;;;;6.88;4.57;;;11.80;42.40;;;;;;5089722;28;20044;-86
2022/03/11 17:50:14;;;;;;;7.00;3.45;;;11.70;42.50;;;;;;5095640;28;20143;-87
2022/03/11 17:52:41;;;;;;;7.15;4.18;;;11.80;42.60;;;;;;5096484;28;20476;-88
2022/03/11 17:55:11;;;;;;;6.68;3.67;;;11.70;42.60;;;;;;5096456;28;20056;-90
2022/03/11 17:57:38;;;;;;;8.70;5.32;;;11.70;42.90;;;;;;5075450;28;20136;-90
2022/03/11 18:00:10;;;;;;;7.57;4.88;;;11.50;42.70;;;;;;5093366;28;20134;-88
2022/03/11 18:02:37;;;;;;;7.43;3.95;;;11.40;42.90;;;;;;5096869;28;20492;-89